Time;durP1;ratioP1;P1;durP2;ratioP2;P2;SDS_P1;SDS_P2;PMS_P1;PMS_P2;Temp;Humidity;BMP_temperature;BMP_pressure;BME280_temperature;BME280_humidity;BME280_pressure;Samples;Min_cycle;Max_cycle;Signal;HPM_P1;HPM_P2
2022/10/15 00:00:08;;;;;;;123.03;52.10;;;;;;;10.65;100.00;100730.78;5341925;27;20101;-81
2022/10/15 00:02:40;;;;;;;117.25;51.65;;;;;;;10.65;100.00;100728.13;5340051;27;20028;-80
2022/10/15 00:05:11;;;;;;;125.45;51.67;;;;;;;10.66;100.00;100726.28;5321183;27;20581;-80
2022/10/15 00:07:42;;;;;;;127.28;53.65;;;;;;;10.69;100.00;100723.31;5321114;27;20028;-80
2022/10/15 00:10:15;;;;;;;117.90;49.72;;;;;;;10.78;100.00;100736.63;5320986;27;20046;-80
2022/10/15 00:12:47;;;;;;;124.03;53.22;;;;;;;10.94;100.00;100728.00;5342014;27;20072;-80
2022/10/15 00:15:18;;;;;;;136.48;57.67;;;;;;;11.00;100.00;100731.91;5341308;27;20031;-80
2022/10/15 00:17:49;;;;;;;136.70;58.50;;;;;;;11.05;100.00;100734.97;5341515;27;20031;-81
2022/10/15 00:20:21;;;;;;;143.13;61.13;;;;;;;11.18;100.00;100728.44;5317884;27;20031;-80
2022/10/15 00:22:53;;;;;;;126.20;54.75;;;;;;;11.19;100.00;100738.16;5341169;27;20043;-81
2022/10/15 00:25:24;;;;;;;122.95;54.42;;;;;;;11.24;100.00;100742.03;5339239;27;20173;-81
2022/10/15 00:27:55;;;;;;;109.88;53.28;;;;;;;11.27;100.00;100740.88;5339156;27;20440;-80
2022/10/15 00:30:26;;;;;;;116.95;54.97;;;;;;;11.27;100.00;100740.88;5337877;27;20027;-80
2022/10/15 00:32:58;;;;;;;110.70;52.65;;;;;;;11.26;100.00;100737.38;5341027;27;20069;-80
2022/10/15 00:35:29;;;;;;;112.00;51.83;;;;;;;11.28;100.00;100746.09;5317420;27;20090;-80
2022/10/15 00:38:01;;;;;;;127.70;55.08;;;;;;;11.26;100.00;100733.88;5340284;27;20015;-80
2022/10/15 00:40:32;;;;;;;123.50;56.17;;;;;;;11.24;100.00;100741.22;5319202;27;20062;-81
2022/10/15 00:43:10;;;;;;;119.90;56.58;;;;;;;11.32;100.00;100734.09;5317601;27;20490;-81
2022/10/15 00:45:41;;;;;;;115.78;54.95;;;;;;;11.33;100.00;100741.13;5338502;27;20027;-80
2022/10/15 00:48:12;;;;;;;100.28;50.63;;;;;;;11.40;100.00;100745.88;5344494;27;20103;-81
2022/10/15 00:50:44;;;;;;;99.57;47.33;;;;;;;11.47;100.00;100746.97;5339154;27;20051;-81
2022/10/15 00:53:15;;;;;;;97.80;48.72;;;;;;;11.46;100.00;100748.78;5341916;27;20023;-80
2022/10/15 00:55:49;;;;;;;98.13;50.55;;;;;;;11.48;100.00;100751.31;5339517;27;20022;-80
2022/10/15 00:58:27;;;;;;;88.75;48.20;;;;;;;11.54;100.00;100748.03;5338194;27;20039;-81
2022/10/15 01:00:58;;;;;;;82.25;46.10;;;;;;;11.55;100.00;100749.69;5342577;27;20116;-81
2022/10/15 01:03:30;;;;;;;92.72;52.03;;;;;;;11.58;100.00;100749.41;5335627;27;20629;-81
2022/10/15 01:06:02;;;;;;;89.50;48.58;;;;;;;11.59;100.00;100743.09;5321218;27;20024;-81
2022/10/15 01:08:34;;;;;;;99.28;53.35;;;;;;;11.59;100.00;100744.91;5320890;27;20027;-81
2022/10/15 01:11:26;;;;;;;83.43;48.88;;;;;;;11.61;100.00;100743.78;5340820;27;20050;-80
2022/10/15 01:14:12;;;;;;;92.30;48.63;;;;;;;11.60;100.00;100738.56;5338084;27;20052;-81
2022/10/15 01:16:58;;;;;;;81.55;49.83;;;;;;;11.64;100.00;100731.94;5340192;27;20023;-81
2022/10/15 01:20:07;;;;;;;84.07;49.72;;;;;;;11.71;100.00;100739.19;5338000;27;20062;-81
2022/10/15 01:22:53;;;;;;;82.13;51.95;;;;;;;11.76;100.00;100733.38;5340026;27;20063;-81
2022/10/15 01:26:02;;;;;;;84.33;52.77;;;;;;;11.82;100.00;100729.28;5340026;27;20493;-81
2022/10/15 01:28:46;;;;;;;82.22;50.40;;;;;;;11.78;100.00;100726.06;5333562;27;20078;-81
2022/10/15 01:31:43;;;;;;;82.78;50.47;;;;;;;11.79;100.00;100718.88;5344356;27;20024;-81
2022/10/15 01:34:49;;;;;;;76.63;48.55;;;;;;;11.85;100.00;100719.13;5341132;27;20040;-81
2022/10/15 01:37:37;;;;;;;78.95;51.45;;;;;;;11.86;100.00;100710.09;5344039;27;20036;-81
2022/10/15 01:40:14;;;;;;;;;;;;;;;11.91;100.00;100707.81;5344150;27;20503;-81
2022/10/15 01:43:02;;;;;;;77.28;49.15;;;;;;;11.85;100.00;100708.44;5345040;27;20262;-81
2022/10/15 01:45:47;;;;;;;78.93;51.92;;;;;;;11.93;100.00;100713.03;5338294;27;20090;-80
2022/10/15 01:48:19;;;;;;;75.00;49.67;;;;;;;11.91;100.00;100718.53;5338124;27;20019;-81
2022/10/15 01:50:56;;;;;;;74.28;49.65;;;;;;;11.96;100.00;100709.22;5340668;27;20031;-81
2022/10/15 01:53:28;;;;;;;;;;;;;;;12.04;100.00;100709.25;5338752;27;20234;-81
2022/10/15 01:56:05;;;;;;;67.63;44.22;;;;;;;11.99;100.00;100699.06;5339362;27;19912;-81
2022/10/15 01:58:42;;;;;;;65.72;44.55;;;;;;;12.03;100.00;100699.59;5320595;27;20082;-81
2022/10/15 02:01:14;;;;;;;76.63;48.38;;;;;;;11.97;100.00;100695.69;5347317;27;20034;-81
2022/10/15 02:03:50;;;;;;;63.45;42.75;;;;;;;12.05;100.00;100701.09;5344798;27;20028;-81
2022/10/15 02:06:34;;;;;;;56.90;37.25;;;;;;;12.06;100.00;100694.75;5342203;27;20405;-81
2022/10/15 02:09:21;;;;;;;71.57;48.60;;;;;;;12.08;100.00;100705.31;5338387;27;20035;-81
2022/10/15 02:12:11;;;;;;;69.57;44.42;;;;;;;12.12;100.00;100695.13;5343228;27;20031;-81
2022/10/15 02:15:16;;;;;;;70.78;46.97;;;;;;;12.08;100.00;100683.91;5342257;27;20558;-81
2022/10/15 02:17:58;;;;;;;72.47;47.88;;;;;;;12.06;100.00;100684.06;5340279;27;20036;-81
2022/10/15 02:20:34;;;;;;;71.80;48.75;;;;;;;12.06;100.00;100685.88;5339795;27;20370;-81
2022/10/15 02:23:18;;;;;;;75.03;47.00;;;;;;;12.03;100.00;100676.34;5342267;27;20032;-81
2022/10/15 02:25:52;;;;;;;69.30;47.08;;;;;;;12.03;100.00;100687.06;5341240;27;20027;-81
2022/10/15 02:28:25;;;;;;;67.68;45.47;;;;;;;12.07;100.00;100677.72;5343435;27;20024;-81
2022/10/15 02:30:58;;;;;;;63.33;44.65;;;;;;;12.08;100.00;100676.72;5339109;27;20038;-81
2022/10/15 02:33:32;;;;;;;61.63;40.08;;;;;;;12.07;100.00;100668.84;5341154;27;20036;-81
2022/10/15 02:36:04;;;;;;;71.13;47.22;;;;;;;12.10;100.00;100669.38;5342344;27;20016;-81
2022/10/15 02:38:39;;;;;;;67.95;46.75;;;;;;;12.11;100.00;100670.22;5343808;27;20067;-81
2022/10/15 02:41:12;;;;;;;70.28;47.10;;;;;;;12.15;100.00;100660.91;5341009;27;20126;-81
2022/10/15 02:43:44;;;;;;;72.25;45.95;;;;;;;12.11;100.00;100654.16;5343166;27;20019;-81
2022/10/15 02:46:17;;;;;;;70.50;45.58;;;;;;;12.14;100.00;100651.19;5340514;27;20843;-81
2022/10/15 02:48:48;;;;;;;70.90;46.67;;;;;;;12.14;100.00;100648.53;5342022;27;20020;-81
2022/10/15 02:51:19;;;;;;;70.32;46.97;;;;;;;12.15;100.00;100652.88;5341263;27;20020;-81
2022/10/15 02:53:51;;;;;;;77.10;48.75;;;;;;;12.13;100.00;100640.66;5343492;27;20381;-81
2022/10/15 02:56:22;;;;;;;62.38;43.47;;;;;;;12.18;100.00;100643.69;5322862;27;20031;-81
2022/10/15 02:58:53;;;;;;;72.05;46.20;;;;;;;12.15;100.00;100639.50;5342448;27;20111;-81
2022/10/15 03:01:24;;;;;;;70.43;46.60;;;;;;;12.16;100.00;100632.31;5341143;27;20038;-81
2022/10/15 03:03:56;;;;;;;72.90;48.83;;;;;;;12.18;100.00;100630.31;5338364;27;20030;-81
2022/10/15 03:06:27;;;;;;;70.15;45.28;;;;;;;12.20;100.00;100625.66;5341011;27;20023;-81
2022/10/15 03:08:58;;;;;;;69.25;44.97;;;;;;;12.20;100.00;100626.50;5338114;27;20023;-81
2022/10/15 03:11:30;;;;;;;75.40;46.30;;;;;;;12.18;100.00;100630.31;5340216;27;20366;-81
2022/10/15 03:14:01;;;;;;;72.90;44.72;;;;;;;12.17;100.00;100631.34;5323518;27;20051;-81
2022/10/15 03:16:32;;;;;;;75.05;45.60;;;;;;;12.10;100.00;100621.25;5341230;27;20027;-81
2022/10/15 03:19:04;;;;;;;72.57;45.47;;;;;;;12.13;100.00;100625.44;5342220;27;20054;-81
2022/10/15 03:21:35;;;;;;;72.10;45.55;;;;;;;12.16;100.00;100629.66;5342738;27;20058;-81
2022/10/15 03:24:06;;;;;;;75.10;46.17;;;;;;;12.20;100.00;100633.69;5337671;27;20020;-81
2022/10/15 03:26:38;;;;;;;64.60;43.13;;;;;;;12.21;100.00;100625.50;5338234;27;20077;-81
2022/10/15 03:29:09;;;;;;;71.53;44.78;;;;;;;12.23;100.00;100620.81;5339557;27;20032;-81
2022/10/15 03:31:40;;;;;;;66.45;41.15;;;;;;;12.26;100.00;100644.59;5337410;27;20061;-81
2022/10/15 03:34:12;;;;;;;71.78;44.88;;;;;;;12.26;100.00;100630.38;5339010;27;20024;-81
2022/10/15 03:36:43;;;;;;;77.45;44.55;;;;;;;12.28;100.00;100642.59;5340173;27;20389;-81
2022/10/15 03:39:15;;;;;;;73.88;46.03;;;;;;;12.29;100.00;100628.22;5337446;27;20438;-81
2022/10/15 03:41:46;;;;;;;74.60;44.33;;;;;;;12.33;100.00;100631.41;5320160;27;20389;-81
2022/10/15 03:44:17;;;;;;;75.35;42.45;;;;;;;12.31;100.00;100622.72;5341782;27;20026;-81
2022/10/15 03:46:49;;;;;;;77.75;45.13;;;;;;;12.31;100.00;100622.72;5339726;27;20024;-81
2022/10/15 03:49:20;;;;;;;74.38;42.55;;;;;;;12.31;100.00;100620.06;5336610;27;20032;-81
2022/10/15 03:51:51;;;;;;;60.40;36.55;;;;;;;12.31;100.00;100617.38;5341268;27;20035;-81
2022/10/15 03:54:23;;;;;;;76.68;44.05;;;;;;;12.29;100.00;100614.03;5339425;27;20024;-81
2022/10/15 03:56:54;;;;;;;67.63;38.67;;;;;;;12.28;100.00;100610.50;5340546;27;20058;-81
2022/10/15 03:59:25;;;;;;;75.78;42.58;;;;;;;12.27;100.00;100616.00;5339625;27;20121;-81
2022/10/15 04:01:57;;;;;;;80.47;44.08;;;;;;;12.28;100.00;100618.50;5340347;27;20100;-81
2022/10/15 04:04:28;;;;;;;84.63;45.47;;;;;;;12.30;100.00;100619.19;5318445;27;20108;-81
2022/10/15 04:06:59;;;;;;;80.40;44.63;;;;;;;12.27;100.00;100613.31;5339922;27;20028;-81
2022/10/15 04:09:30;;;;;;;82.18;44.95;;;;;;;12.28;100.00;100615.84;5318637;27;20028;-80
2022/10/15 04:12:02;;;;;;;83.55;45.65;;;;;;;12.29;100.00;100622.06;5341773;27;20032;-80
2022/10/15 04:14:33;;;;;;;70.30;38.20;;;;;;;12.32;100.00;100631.56;5341604;27;20086;-80
2022/10/15 04:17:05;;;;;;;88.28;46.45;;;;;;;12.35;100.00;100625.91;5340691;27;20158;-80
2022/10/15 04:19:36;;;;;;;87.80;47.08;;;;;;;12.36;100.00;100623.09;5322651;27;20042;-81
2022/10/15 04:22:08;;;;;;;85.57;45.55;;;;;;;12.41;100.00;100628.81;5340114;27;20374;-80
2022/10/15 04:24:39;;;;;;;83.68;44.63;;;;;;;12.43;100.00;100629.47;5342386;27;20431;-80
2022/10/15 04:27:11;;;;;;;92.88;47.95;;;;;;;12.47;100.00;100636.16;5340792;27;20063;-80
2022/10/15 04:29:42;;;;;;;86.15;46.88;;;;;;;12.52;100.00;100633.03;5321188;27;20558;-80
2022/10/15 04:32:14;;;;;;;94.00;47.47;;;;;;;12.54;100.00;100627.53;5342383;27;20081;-80
2022/10/15 04:34:46;;;;;;;90.07;46.65;;;;;;;12.57;100.00;100627.19;5341696;27;20039;-80
2022/10/15 04:37:18;;;;;;;73.10;41.83;;;;;;;12.59;100.00;100615.31;5337485;27;20478;-80
2022/10/15 04:39:49;;;;;;;87.45;42.35;;;;;;;12.60;100.00;100619.66;5322488;27;20043;-81
2022/10/15 04:42:20;;;;;;;85.40;45.85;;;;;;;12.60;100.00;100616.16;5308783;27;20028;-80
2022/10/15 04:44:52;;;;;;;82.65;42.50;;;;;;;12.64;100.00;100612.16;5340777;27;20093;-80
2022/10/15 04:47:23;;;;;;;78.13;41.95;;;;;;;12.66;100.00;100611.00;5336190;27;20473;-80
2022/10/15 04:49:55;;;;;;;72.00;39.85;;;;;;;12.67;100.00;100614.50;5340222;27;20058;-80
2022/10/15 04:52:26;;;;;;;75.25;39.80;;;;;;;12.68;100.00;100618.88;5334372;27;20027;-80
2022/10/15 04:54:57;;;;;;;72.13;38.58;;;;;;;12.71;100.00;100610.53;5339762;27;21144;-80
2022/10/15 04:57:30;;;;;;;74.55;40.58;;;;;;;12.73;100.00;100607.66;5339000;27;20040;-80
2022/10/15 05:00:02;;;;;;;74.22;41.30;;;;;;;12.73;100.00;100603.19;5335620;27;20060;-80
2022/10/15 05:02:33;;;;;;;81.22;43.38;;;;;;;12.75;100.00;100614.53;5340699;27;20401;-80
2022/10/15 05:05:05;;;;;;;82.03;44.58;;;;;;;12.74;100.00;100615.53;5340330;27;20110;-80
2022/10/15 05:07:36;;;;;;;71.05;39.72;;;;;;;12.71;100.00;100609.66;5342352;27;20040;-80
2022/10/15 05:10:07;;;;;;;72.75;41.03;;;;;;;12.68;100.00;100610.84;5338161;27;20026;-81
2022/10/15 05:12:39;;;;;;;70.78;39.85;;;;;;;12.68;100.00;100608.16;5322161;27;20027;-81
2022/10/15 05:15:10;;;;;;;62.55;37.60;;;;;;;12.64;100.00;100623.72;5337767;27;20134;-80
2022/10/15 05:17:41;;;;;;;64.82;39.13;;;;;;;12.51;100.00;100609.94;5337738;27;20069;-80
2022/10/15 05:20:12;;;;;;;58.78;35.58;;;;;;;12.56;100.00;100623.66;5338492;27;20705;-80
2022/10/15 05:22:44;;;;;;;61.67;35.88;;;;;;;12.52;100.00;100618.78;5322653;27;20066;-80
2022/10/15 05:25:18;;;;;;;60.25;36.22;;;;;;;12.56;100.00;100625.50;5338079;27;20047;-80
2022/10/15 05:27:50;;;;;;;59.80;37.10;;;;;;;12.55;100.00;100622.00;5324741;27;20035;-80
2022/10/15 05:30:21;;;;;;;61.05;37.13;;;;;;;12.53;100.00;100618.63;5336013;27;20036;-80
2022/10/15 05:32:53;;;;;;;56.28;36.55;;;;;;;12.56;100.00;100620.16;5334561;27;20114;-81
2022/10/15 05:35:24;;;;;;;55.50;34.67;;;;;;;12.56;100.00;100612.97;5340794;27;20058;-81
2022/10/15 05:37:56;;;;;;;60.28;38.38;;;;;;;12.57;100.00;100627.19;5345442;27;20019;-81
2022/10/15 05:40:27;;;;;;;58.42;36.42;;;;;;;12.57;100.00;100627.19;5341474;27;20039;-81
2022/10/15 05:42:59;;;;;;;59.50;35.80;;;;;;;12.60;100.00;100617.00;5339219;27;20031;-81
2022/10/15 05:45:30;;;;;;;54.22;34.95;;;;;;;12.60;100.00;100618.84;5341927;27;30212;-81
2022/10/15 05:48:01;;;;;;;56.10;36.10;;;;;;;12.59;100.00;100618.00;5335074;27;20169;-81
2022/10/15 05:50:33;;;;;;;52.50;35.42;;;;;;;12.56;100.00;100601.44;5337641;27;20028;-81
2022/10/15 05:53:04;;;;;;;57.72;35.90;;;;;;;12.61;100.00;100615.16;5344621;27;20035;-81
2022/10/15 05:55:36;;;;;;;58.00;36.90;;;;;;;12.62;100.00;100611.47;5343666;27;20112;-81
2022/10/15 05:58:07;;;;;;;56.80;35.55;;;;;;;12.61;100.00;100607.16;5344215;27;20023;-81
2022/10/15 06:00:38;;;;;;;54.08;33.25;;;;;;;12.67;100.00;100618.03;5325245;27;20114;-81
2022/10/15 06:03:13;;;;;;;57.13;36.08;;;;;;;12.65;100.00;100614.66;5340591;27;20085;-81
2022/10/15 06:05:44;;;;;;;52.40;36.40;;;;;;;12.63;100.00;100623.88;5341698;27;20039;-81
2022/10/15 06:08:15;;;;;;;53.88;34.58;;;;;;;12.56;100.00;100618.31;5342937;27;20024;-81
2022/10/15 06:10:48;;;;;;;62.58;35.72;;;;;;;12.52;100.00;100611.63;5339472;27;20088;-81
2022/10/15 06:13:19;;;;;;;54.13;34.15;;;;;;;12.55;100.00;100616.66;5343017;27;20039;-81
2022/10/15 06:15:50;;;;;;;61.05;36.15;;;;;;;12.51;100.00;100612.59;5345854;27;20081;-81
2022/10/15 06:18:21;;;;;;;53.03;33.42;;;;;;;12.54;100.00;100617.66;5335536;27;20108;-81
2022/10/15 06:20:53;;;;;;;54.17;34.17;;;;;;;12.52;100.00;100610.75;5341452;27;20031;-80
2022/10/15 06:23:24;;;;;;;59.97;35.42;;;;;;;12.59;100.00;100618.00;5350068;27;20235;-80
2022/10/15 06:25:55;;;;;;;55.45;35.63;;;;;;;12.59;100.00;100620.69;5346893;27;20024;-80
2022/10/15 06:28:27;;;;;;;55.75;35.33;;;;;;;12.66;100.00;100613.69;5346799;27;20078;-80
2022/10/15 06:30:59;;;;;;;56.50;35.83;;;;;;;12.65;100.00;100614.66;5343527;27;20030;-80
2022/10/15 06:33:31;;;;;;;56.67;34.78;;;;;;;12.67;100.00;100611.84;5328592;27;20012;-80
2022/10/15 06:36:09;;;;;;;58.15;38.08;;;;;;;12.70;100.00;100613.38;5347388;27;20031;-80
2022/10/15 06:38:43;;;;;;;59.08;36.80;;;;;;;12.67;100.00;100611.84;5325854;27;20031;-80
2022/10/15 06:41:15;;;;;;;59.17;37.67;;;;;;;12.73;100.00;100618.38;5345606;27;20068;-80
2022/10/15 06:43:49;;;;;;;57.33;36.78;;;;;;;12.77;100.00;100609.03;5345249;27;20047;-81
2022/10/15 06:46:21;;;;;;;56.58;38.05;;;;;;;12.75;100.00;100616.41;5347976;27;20489;-81
2022/10/15 06:48:53;;;;;;;57.80;39.15;;;;;;;12.65;100.00;100601.28;5347185;27;20020;-81
2022/10/15 06:51:24;;;;;;;58.97;40.10;;;;;;;12.70;100.00;100613.38;5341963;27;20027;-81
2022/10/15 06:53:56;;;;;;;52.63;36.15;;;;;;;12.62;100.00;100601.63;5341789;27;20027;-81
2022/10/15 06:56:27;;;;;;;58.83;39.08;;;;;;;12.64;100.00;100609.47;5345489;27;20031;-81
2022/10/15 06:58:58;;;;;;;53.50;37.40;;;;;;;12.67;100.00;100609.16;5345998;27;20390;-81
2022/10/15 07:01:32;;;;;;;58.35;37.45;;;;;;;12.71;100.00;100618.56;5344152;27;20035;-81
2022/10/15 07:04:03;;;;;;;52.15;37.28;;;;;;;12.73;100.00;100600.50;5340771;27;30307;-81
2022/10/15 07:06:35;;;;;;;56.15;36.80;;;;;;;12.67;100.00;100607.34;5342501;27;20028;-81
2022/10/15 07:09:06;;;;;;;45.53;33.30;;;;;;;12.67;100.00;100618.03;5346751;27;20491;-81
2022/10/15 07:11:37;;;;;;;48.33;33.47;;;;;;;12.78;100.00;100616.91;5323092;27;20417;-81
2022/10/15 07:14:09;;;;;;;48.60;33.95;;;;;;;12.91;100.00;100623.63;5343147;27;20070;-81
2022/10/15 07:16:40;;;;;;;42.05;31.77;;;;;;;12.97;100.00;100626.50;5342435;27;20568;-82
2022/10/15 07:19:11;;;;;;;43.22;31.00;;;;;;;13.26;100.00;100627.88;5346036;27;20115;-81
2022/10/15 07:21:43;;;;;;;41.22;29.27;;;;;;;13.27;100.00;100621.53;5347182;27;20030;-80
2022/10/15 07:24:14;;;;;;;34.80;29.17;;;;;;;13.57;100.00;100619.25;5325127;27;20031;-81
2022/10/15 07:26:46;;;;;;;37.28;27.75;;;;;;;14.34;100.00;100589.25;5345377;27;20506;-81
2022/10/15 07:29:18;;;;;;;35.85;26.85;;;;;;;15.45;100.00;100598.06;5330192;27;20020;-81
2022/10/15 07:31:49;;;;;;;26.95;22.73;;;;;;;15.81;100.00;100595.63;5342234;27;20024;-81
2022/10/15 07:34:21;;;;;;;24.65;21.85;;;;;;;15.80;100.00;100582.34;5346784;27;20028;-81
2022/10/15 07:36:52;;;;;;;22.35;20.15;;;;;;;15.51;100.00;100581.22;5346878;27;20016;-81
2022/10/15 07:39:24;;;;;;;22.63;19.73;;;;;;;15.34;100.00;100571.59;5346709;27;20027;-81
2022/10/15 07:41:55;;;;;;;21.58;19.27;;;;;;;16.13;100.00;100571.22;5312722;27;20039;-81
2022/10/15 07:44:26;;;;;;;19.35;17.45;;;;;;;15.77;100.00;100571.94;5307691;28;20415;-81
2022/10/15 07:46:58;;;;;;;21.23;17.45;;;;;;;16.19;100.00;100565.09;5333739;27;20046;-81
2022/10/15 07:49:29;;;;;;;18.65;15.93;;;;;;;15.81;100.00;100575.94;5347846;27;20027;-82
2022/10/15 07:52:00;;;;;;;22.95;18.40;;;;;;;17.49;100.00;100558.06;5348492;27;20143;-81
2022/10/15 07:54:32;;;;;;;17.42;15.50;;;;;;;18.52;100.00;100566.41;5344725;27;20130;-81
2022/10/15 07:57:05;;;;;;;14.88;13.35;;;;;;;18.21;100.00;100556.91;5321237;27;20524;-81
2022/10/15 07:59:37;;;;;;;14.38;12.90;;;;;;;17.47;100.00;100552.88;5341449;27;20044;-81
2022/10/15 08:02:18;;;;;;;13.77;12.27;;;;;;;16.91;100.00;100550.06;5342893;27;20038;-81
2022/10/15 08:04:49;;;;;;;13.80;12.32;;;;;;;16.38;100.00;100551.06;5342008;27;20031;-81
2022/10/15 08:07:20;;;;;;;13.77;12.45;;;;;;;16.38;100.00;100556.47;5338969;27;20069;-81
2022/10/15 08:09:52;;;;;;;13.98;12.10;;;;;;;16.70;100.00;100553.53;5340286;27;20425;-79
2022/10/15 08:12:23;;;;;;;13.20;11.57;;;;;;;16.59;100.00;100544.91;5341492;27;20025;-82
2022/10/15 08:14:54;;;;;;;11.80;10.70;;;;;;;16.37;100.00;100540.50;5321635;27;20048;-81
2022/10/15 08:17:26;;;;;;;11.80;10.68;;;;;;;16.24;100.00;100542.00;5341347;27;20043;-81
2022/10/15 08:19:57;;;;;;;11.25;10.15;;;;;;;16.22;100.00;100535.16;5342805;27;20134;-81
2022/10/15 08:22:28;;;;;;;11.85;10.65;;;;;;;16.53;100.00;100540.31;5340248;27;20363;-81
2022/10/15 08:25:00;;;;;;;11.25;9.98;;;;;;;16.61;100.00;100531.28;5342539;27;20028;-81
2022/10/15 08:27:31;;;;;;;9.90;8.90;;;;;;;16.58;100.00;100532.47;5337099;27;20073;-81
2022/10/15 08:30:03;;;;;;;11.18;9.95;;;;;;;16.25;100.00;100541.00;5340241;27;20024;-81
2022/10/15 08:32:34;;;;;;;18.48;10.05;;;;;;;16.11;100.00;100544.53;5340920;27;20047;-81
2022/10/15 08:35:06;;;;;;;10.00;8.00;;;;;;;15.87;100.00;100542.94;5341145;27;20073;-80
2022/10/15 08:37:37;;;;;;;9.23;7.80;;;;;;;15.79;100.00;100546.53;5336462;27;20432;-81
2022/10/15 08:40:11;;;;;;;7.32;6.63;;;;;;;15.57;100.00;100536.63;5341893;27;20023;-81
2022/10/15 08:42:45;;;;;;;10.00;7.32;;;;;;;15.69;100.00;100522.59;5341694;27;20054;-81
2022/10/15 08:45:22;;;;;;;8.50;6.82;;;;;;;15.74;100.00;100527.38;5340770;27;20043;-81
2022/10/15 08:48:02;;;;;;;10.15;7.65;;;;;;;16.05;100.00;100523.72;5339533;27;20019;-82
2022/10/15 08:50:45;;;;;;;7.22;6.60;;;;;;;16.15;100.00;100520.78;5318406;27;20032;-81
2022/10/15 08:53:22;;;;;;;7.05;6.40;;;;;;;16.01;100.00;100517.91;5339285;27;20039;-81
2022/10/15 08:56:02;;;;;;;6.82;5.95;;;;;;;15.93;100.00;100517.97;5340623;27;20019;-81
2022/10/15 08:58:49;;;;;;;6.43;5.82;;;;;;;15.95;100.00;100515.94;5337480;27;20236;-81
2022/10/15 09:01:47;;;;;;;7.78;5.65;;;;;;;15.94;100.00;100511.59;5340231;27;20027;-81
2022/10/15 09:04:29;;;;;;;6.38;5.63;;;;;;;16.09;100.00;100505.38;5334297;27;20465;-80
2022/10/15 09:07:16;;;;;;;5.80;5.20;;;;;;;16.18;100.00;100494.31;5338707;27;20042;-81
2022/10/15 09:09:52;;;;;;;6.15;5.50;;;;;;;16.22;100.00;100494.78;5344360;27;20538;-80
2022/10/15 09:12:41;;;;;;;7.90;5.90;;;;;;;15.99;100.00;100492.22;5337575;27;20028;-80
2022/10/15 09:15:15;;;;;;;6.75;5.75;;;;;;;15.92;100.00;100492.13;5345189;27;20402;-80
2022/10/15 09:17:50;;;;;;;6.38;5.78;;;;;;;15.81;100.00;100496.13;5347220;27;20503;-81
2022/10/15 09:20:28;;;;;;;6.60;5.78;;;;;;;15.66;100.00;100492.53;5349182;27;20059;-80
2022/10/15 09:23:00;;;;;;;6.25;5.55;;;;;;;15.58;100.00;100495.31;5347491;27;20047;-80
2022/10/15 09:25:35;;;;;;;6.43;5.32;;;;;;;15.77;100.00;100492.09;5343665;27;20552;-80
2022/10/15 09:28:09;;;;;;;6.00;5.07;;;;;;;15.78;100.00;100492.97;5331377;27;20027;-80
2022/10/15 09:30:49;;;;;;;5.40;4.90;;;;;;;15.73;100.00;100498.84;5349431;27;20027;-80
2022/10/15 09:33:44;;;;;;;5.30;4.47;;;;;;;15.80;100.00;100496.28;5330265;27;20019;-80
2022/10/15 09:36:22;;;;;;;5.15;4.65;;;;;;;15.72;100.00;100499.03;5348497;27;20069;-80
2022/10/15 09:39:00;;;;;;;5.60;4.15;;;;;;;15.55;100.00;100491.16;5348775;27;20028;-81
2022/10/15 09:41:57;;;;;;;4.80;3.97;;;;;;;15.53;100.00;100489.66;5349052;27;20020;-81
2022/10/15 09:44:35;;;;;;;6.38;4.15;;;;;;;15.23;100.00;100490.41;5317065;27;20041;-81
2022/10/15 09:47:17;;;;;;;5.18;3.75;;;;;;;15.02;100.00;100501.84;5347253;27;20417;-81
2022/10/15 09:49:48;;;;;;;5.97;4.18;;;;;;;15.03;100.00;100487.41;5347840;27;20501;-81
2022/10/15 09:52:39;;;;;;;5.82;3.97;;;;;;;15.13;100.00;100500.59;5345401;27;20030;-82
2022/10/15 09:55:26;;;;;;;6.15;3.90;;;;;;;15.10;100.00;100487.53;5327386;27;20032;-81
2022/10/15 09:58:06;;;;;;;5.05;3.88;;;;;;;15.07;100.00;100474.44;5329074;27;20027;-82
2022/10/15 10:00:58;;;;;;;4.63;3.80;;;;;;;15.23;100.00;100482.34;5328369;27;20067;-81
2022/10/15 10:03:31;;;;;;;3.97;3.58;;;;;;;15.20;100.00;100482.75;5345612;27;20063;-82
2022/10/15 10:06:14;;;;;;;4.00;3.47;;;;;;;15.32;100.00;100483.97;5346500;27;20028;-81
2022/10/15 10:08:51;;;;;;;6.90;2.95;;;;;;;15.32;100.00;100489.34;5336592;27;20023;-82
2022/10/15 10:11:24;;;;;;;2.72;2.53;;;;;;;15.29;100.00;100483.50;5343277;27;20028;-82
2022/10/15 10:13:58;;;;;;;4.05;3.15;;;;;;;15.42;100.00;100482.88;5342750;27;20118;-82
2022/10/15 10:16:32;;;;;;;6.28;2.75;;;;;;;15.42;100.00;100470.25;5341305;27;20028;-82
2022/10/15 10:19:14;;;;;;;4.95;2.75;;;;;;;15.49;100.00;100476.56;5319160;27;20052;-82
2022/10/15 10:21:45;;;;;;;3.30;2.38;;;;;;;15.57;100.00;100482.88;5341717;27;20157;-81
2022/10/15 10:24:30;;;;;;;2.60;2.40;;;;;;;15.68;100.00;100480.56;5321375;27;20031;-81
2022/10/15 10:27:02;;;;;;;4.45;2.20;;;;;;;15.72;100.00;100480.22;5322481;27;20577;-82
2022/10/15 10:29:39;;;;;;;3.88;1.80;;;;;;;15.66;100.00;100482.63;5345792;27;20036;-81
2022/10/15 10:32:32;;;;;;;2.05;1.85;;;;;;;15.66;100.00;100473.72;5346806;27;20065;-81
2022/10/15 10:35:04;;;;;;;2.90;2.00;;;;;;;15.54;100.00;100472.50;5324975;27;20140;-81
2022/10/15 10:37:41;;;;;;;2.50;1.95;;;;;;;15.52;100.00;100474.56;5346702;27;20077;-81
2022/10/15 10:40:34;;;;;;;3.25;1.58;;;;;;;15.55;100.00;100487.59;5320894;27;20073;-82
2022/10/15 10:43:14;;;;;;;2.47;1.63;;;;;;;15.61;100.00;100501.16;5322947;27;20474;-82
2022/10/15 10:46:04;;;;;;;1.70;1.60;;;;;;;15.76;100.00;100478.84;5316160;27;20064;-81
2022/10/15 10:48:41;;;;;;;2.47;1.80;;;;;;;15.75;100.00;100502.22;5337639;27;20088;-81
2022/10/15 10:51:17;;;;;;;1.85;1.58;;;;;;;15.76;100.00;100479.69;5340034;27;20042;-82
2022/10/15 10:53:57;;;;;;;2.07;1.97;;;;;;;15.75;100.00;100487.94;5323219;27;20035;-82
2022/10/15 10:56:41;;;;;;;2.50;1.88;;;;;;;15.87;100.00;100484.59;5338854;27;20028;-81
2022/10/15 10:59:18;;;;;;;4.03;1.88;;;;;;;15.91;100.00;100478.84;5338118;27;20043;-81
2022/10/15 11:01:51;;;;;;;3.33;2.17;;;;;;;15.94;100.00;100471.25;5342344;27;20061;-81
2022/10/15 11:04:24;;;;;;;4.05;2.63;;;;;;;16.01;100.00;100479.41;5343030;27;20023;-82
2022/10/15 11:07:13;;;;;;;6.03;2.67;;;;;;;16.10;100.00;100470.22;5341434;27;20016;-80
2022/10/15 11:10:10;;;;;;;4.45;2.00;;;;;;;16.26;100.00;100474.53;5339524;27;20035;-81
2022/10/15 11:12:57;;;;;;;2.40;2.15;;;;;;;16.41;100.00;100461.88;5319739;27;20475;-82
2022/10/15 11:15:37;;;;;;;;;;;;;;;16.64;100.00;100469.78;5338329;27;20048;-81
2022/10/15 11:18:32;;;;;;;2.30;1.67;;;;;;;16.73;100.00;100461.59;5338649;27;19915;-81
2022/10/15 11:21:13;;;;;;;2.08;1.80;;;;;;;16.83;100.00;100470.19;5313602;27;20059;-81
2022/10/15 11:23:47;;;;;;;2.63;1.80;;;;;;;16.78;100.00;100459.16;5343164;27;38273;-82
2022/10/15 11:26:34;;;;;;;2.22;1.60;;;;;;;16.88;100.00;100457.00;5319196;27;20051;-81
2022/10/15 11:29:26;;;;;;;2.70;1.40;;;;;;;16.98;100.00;100454.81;5338761;27;20038;-79
2022/10/15 11:32:03;;;;;;;2.83;1.35;;;;;;;16.94;100.00;100467.00;5340318;27;20061;-80
2022/10/15 11:35:06;;;;;;;2.75;1.30;;;;;;;16.96;100.00;100456.88;5318732;27;20037;-80
2022/10/15 11:37:41;;;;;;;2.17;1.35;;;;;;;17.11;100.00;100461.31;5343098;27;20433;-79
2022/10/15 11:40:31;;;;;;;1.40;1.30;;;;;;;17.12;100.00;100471.09;5343393;27;20050;-82
2022/10/15 11:43:13;;;;;;;2.17;1.20;;;;;;;16.79;100.00;100475.13;5345058;27;20080;-79